sensor_id;sensor_type;location;lat;lon;timestamp;temperature;humidity
66337;SHT30;53139;45.576;5.304;2022-12-29T00:01:19;9.72;87.81
66337;SHT30;53139;45.576;5.304;2022-12-29T00:04:19;9.90;87.30
66337;SHT30;53139;45.576;5.304;2022-12-29T00:07:20;9.86;87.62
66337;SHT30;53139;45.576;5.304;2022-12-29T00:10:20;9.90;87.66
66337;SHT30;53139;45.576;5.304;2022-12-29T00:13:20;10.03;87.14
66337;SHT30;53139;45.576;5.304;2022-12-29T00:16:44;10.17;86.13
66337;SHT30;53139;45.576;5.304;2022-12-29T00:19:45;10.16;86.13
66337;SHT30;53139;45.576;5.304;2022-12-29T00:23:04;10.24;85.69
66337;SHT30;53139;45.576;5.304;2022-12-29T00:26:23;10.13;85.88
66337;SHT30;53139;45.576;5.304;2022-12-29T00:29:42;10.10;86.14
66337;SHT30;53139;45.576;5.304;2022-12-29T00:33:11;10.32;85.27
66337;SHT30;53139;45.576;5.304;2022-12-29T00:36:33;10.38;84.87
66337;SHT30;53139;45.576;5.304;2022-12-29T00:39:34;10.26;85.49
66337;SHT30;53139;45.576;5.304;2022-12-29T00:42:53;10.32;85.01
66337;SHT30;53139;45.576;5.304;2022-12-29T00:46:12;10.20;85.69
66337;SHT30;53139;45.576;5.304;2022-12-29T00:49:13;10.23;85.48
66337;SHT30;53139;45.576;5.304;2022-12-29T00:52:32;10.10;86.31
66337;SHT30;53139;45.576;5.304;2022-12-29T00:55:36;10.16;85.57
66337;SHT30;53139;45.576;5.304;2022-12-29T00:58:36;10.13;85.83
66337;SHT30;53139;45.576;5.304;2022-12-29T01:01:38;10.10;86.13
66337;SHT30;53139;45.576;5.304;2022-12-29T01:04:38;10.09;85.93
66337;SHT30;53139;45.576;5.304;2022-12-29T01:07:39;10.05;86.23
66337;SHT30;53139;45.576;5.304;2022-12-29T01:10:39;10.12;85.69
66337;SHT30;53139;45.576;5.304;2022-12-29T01:13:39;10.02;86.21
66337;SHT30;53139;45.576;5.304;2022-12-29T01:16:41;10.02;85.92
66337;SHT30;53139;45.576;5.304;2022-12-29T01:19:41;9.98;86.81
66337;SHT30;53139;45.576;5.304;2022-12-29T01:22:42;9.86;86.74
66337;SHT30;53139;45.576;5.304;2022-12-29T01:25:43;9.98;86.45
66337;SHT30;53139;45.576;5.304;2022-12-29T01:28:44;9.83;87.03
66337;SHT30;53139;45.576;5.304;2022-12-29T01:31:44;9.86;86.60
66337;SHT30;53139;45.576;5.304;2022-12-29T01:34:45;9.67;88.04
66337;SHT30;53139;45.576;5.304;2022-12-29T01:37:45;9.85;86.54
66337;SHT30;53139;45.576;5.304;2022-12-29T01:40:46;9.81;86.93
66337;SHT30;53139;45.576;5.304;2022-12-29T01:43:48;9.77;86.56
66337;SHT30;53139;45.576;5.304;2022-12-29T01:46:50;9.83;86.28
66337;SHT30;53139;45.576;5.304;2022-12-29T01:49:57;9.82;86.14
66337;SHT30;53139;45.576;5.304;2022-12-29T01:56:07;9.67;86.84
66337;SHT30;53139;45.576;5.304;2022-12-29T01:59:15;9.71;86.68
66337;SHT30;53139;45.576;5.304;2022-12-29T02:02:18;9.69;86.52
66337;SHT30;53139;45.576;5.304;2022-12-29T02:05:27;9.71;86.78
66337;SHT30;53139;45.576;5.304;2022-12-29T02:08:29;9.69;86.79
66337;SHT30;53139;45.576;5.304;2022-12-29T02:11:30;9.61;86.85
66337;SHT30;53139;45.576;5.304;2022-12-29T02:14:31;9.65;86.49
66337;SHT30;53139;45.576;5.304;2022-12-29T02:17:59;9.62;87.22
66337;SHT30;53139;45.576;5.304;2022-12-29T02:21:12;9.65;86.61
66337;SHT30;53139;45.576;5.304;2022-12-29T02:37:24;9.48;88.30
66337;SHT30;53139;45.576;5.304;2022-12-29T02:47:15;9.37;87.46
66337;SHT30;53139;45.576;5.304;2022-12-29T02:50:38;9.19;88.31
66337;SHT30;53139;45.576;5.304;2022-12-29T02:53:40;9.28;87.80
66337;SHT30;53139;45.576;5.304;2022-12-29T02:56:59;9.26;88.05
66337;SHT30;53139;45.576;5.304;2022-12-29T03:00:12;9.33;88.18
66337;SHT30;53139;45.576;5.304;2022-12-29T03:06:49;9.31;88.24
66337;SHT30;53139;45.576;5.304;2022-12-29T03:10:05;9.31;87.92
66337;SHT30;53139;45.576;5.304;2022-12-29T03:16:40;9.33;88.22
66337;SHT30;53139;45.576;5.304;2022-12-29T03:19:47;9.33;88.00
66337;SHT30;53139;45.576;5.304;2022-12-29T03:22:51;9.40;87.68
66337;SHT30;53139;45.576;5.304;2022-12-29T03:25:56;9.34;88.31
66337;SHT30;53139;45.576;5.304;2022-12-29T03:28:58;9.45;87.76
66337;SHT30;53139;45.576;5.304;2022-12-29T03:31:59;9.47;87.92
66337;SHT30;53139;45.576;5.304;2022-12-29T03:35:02;9.41;88.00
66337;SHT30;53139;45.576;5.304;2022-12-29T03:41:20;9.72;85.82
66337;SHT30;53139;45.576;5.304;2022-12-29T03:44:35;9.75;85.53
66337;SHT30;53139;45.576;5.304;2022-12-29T03:47:36;9.78;85.21
66337;SHT30;53139;45.576;5.304;2022-12-29T03:50:36;9.85;84.63
66337;SHT30;53139;45.576;5.304;2022-12-29T03:53:37;9.92;84.49
66337;SHT30;53139;45.576;5.304;2022-12-29T03:56:37;9.86;84.64
66337;SHT30;53139;45.576;5.304;2022-12-29T03:59:37;9.89;84.34
66337;SHT30;53139;45.576;5.304;2022-12-29T04:02:38;9.77;85.59
66337;SHT30;53139;45.576;5.304;2022-12-29T04:05:38;9.79;85.22
66337;SHT30;53139;45.576;5.304;2022-12-29T04:08:38;9.74;85.64
66337;SHT30;53139;45.576;5.304;2022-12-29T04:11:39;9.71;85.67
66337;SHT30;53139;45.576;5.304;2022-12-29T04:14:39;9.72;85.37
66337;SHT30;53139;45.576;5.304;2022-12-29T04:17:40;9.72;85.30
66337;SHT30;53139;45.576;5.304;2022-12-29T04:20:40;9.75;85.27
66337;SHT30;53139;45.576;5.304;2022-12-29T04:23:59;9.81;84.97
66337;SHT30;53139;45.576;5.304;2022-12-29T04:26:59;9.79;84.59
66337;SHT30;53139;45.576;5.304;2022-12-29T04:30:00;9.86;84.27
66337;SHT30;53139;45.576;5.304;2022-12-29T04:33:00;9.82;84.46
66337;SHT30;53139;45.576;5.304;2022-12-29T04:36:01;9.89;84.00
66337;SHT30;53139;45.576;5.304;2022-12-29T04:39:01;9.98;83.46
66337;SHT30;53139;45.576;5.304;2022-12-29T04:42:01;10.07;82.74
66337;SHT30;53139;45.576;5.304;2022-12-29T04:45:02;9.99;83.00
66337;SHT30;53139;45.576;5.304;2022-12-29T04:48:02;10.07;82.63
66337;SHT30;53139;45.576;5.304;2022-12-29T04:51:03;9.96;82.93
66337;SHT30;53139;45.576;5.304;2022-12-29T04:54:03;10.05;82.16
66337;SHT30;53139;45.576;5.304;2022-12-29T04:57:04;10.14;81.32
66337;SHT30;53139;45.576;5.304;2022-12-29T05:00:05;10.12;81.70
66337;SHT30;53139;45.576;5.304;2022-12-29T05:03:05;9.99;82.44
66337;SHT30;53139;45.576;5.304;2022-12-29T05:06:06;10.17;81.01
66337;SHT30;53139;45.576;5.304;2022-12-29T05:09:06;10.17;80.68
66337;SHT30;53139;45.576;5.304;2022-12-29T05:12:07;10.03;81.89
66337;SHT30;53139;45.576;5.304;2022-12-29T05:15:09;10.17;80.20
66337;SHT30;53139;45.576;5.304;2022-12-29T05:18:09;10.18;80.21
66337;SHT30;53139;45.576;5.304;2022-12-29T05:21:09;10.18;79.53
66337;SHT30;53139;45.576;5.304;2022-12-29T05:24:10;9.99;81.06
66337;SHT30;53139;45.576;5.304;2022-12-29T05:27:10;10.09;80.65
66337;SHT30;53139;45.576;5.304;2022-12-29T05:30:11;9.92;81.96
66337;SHT30;53139;45.576;5.304;2022-12-29T05:33:11;10.34;78.45
66337;SHT30;53139;45.576;5.304;2022-12-29T05:36:12;10.14;79.90
66337;SHT30;53139;45.576;5.304;2022-12-29T05:39:12;10.07;80.25
66337;SHT30;53139;45.576;5.304;2022-12-29T05:42:13;10.13;79.98
66337;SHT30;53139;45.576;5.304;2022-12-29T05:45:13;10.13;79.69
66337;SHT30;53139;45.576;5.304;2022-12-29T05:48:13;10.06;80.76
66337;SHT30;53139;45.576;5.304;2022-12-29T05:51:14;10.02;80.75
66337;SHT30;53139;45.576;5.304;2022-12-29T05:54:14;10.24;78.85
66337;SHT30;53139;45.576;5.304;2022-12-29T05:57:15;10.10;79.76
66337;SHT30;53139;45.576;5.304;2022-12-29T06:00:15;10.14;80.13
66337;SHT30;53139;45.576;5.304;2022-12-29T06:03:15;10.32;78.50
66337;SHT30;53139;45.576;5.304;2022-12-29T06:06:16;10.36;78.20
66337;SHT30;53139;45.576;5.304;2022-12-29T06:09:16;10.37;78.18
66337;SHT30;53139;45.576;5.304;2022-12-29T06:12:17;10.26;78.76
66337;SHT30;53139;45.576;5.304;2022-12-29T06:15:17;10.21;78.94
66337;SHT30;53139;45.576;5.304;2022-12-29T06:18:18;10.29;78.03
66337;SHT30;53139;45.576;5.304;2022-12-29T06:21:18;10.17;78.73
66337;SHT30;53139;45.576;5.304;2022-12-29T06:24:18;10.21;78.69
66337;SHT30;53139;45.576;5.304;2022-12-29T06:27:19;10.14;79.12
66337;SHT30;53139;45.576;5.304;2022-12-29T06:30:19;10.37;77.94
66337;SHT30;53139;45.576;5.304;2022-12-29T06:33:19;10.40;77.66
66337;SHT30;53139;45.576;5.304;2022-12-29T06:36:20;10.41;77.56
66337;SHT30;53139;45.576;5.304;2022-12-29T06:39:21;10.44;77.19
66337;SHT30;53139;45.576;5.304;2022-12-29T06:42:21;10.44;77.34
66337;SHT30;53139;45.576;5.304;2022-12-29T06:45:22;10.33;78.24
66337;SHT30;53139;45.576;5.304;2022-12-29T06:48:22;10.21;78.52
66337;SHT30;53139;45.576;5.304;2022-12-29T06:51:22;10.07;79.39
66337;SHT30;53139;45.576;5.304;2022-12-29T06:54:23;9.96;80.40
66337;SHT30;53139;45.576;5.304;2022-12-29T06:57:23;10.17;78.26
66337;SHT30;53139;45.576;5.304;2022-12-29T07:00:24;9.82;82.18
66337;SHT30;53139;45.576;5.304;2022-12-29T07:03:25;9.82;80.43
66337;SHT30;53139;45.576;5.304;2022-12-29T07:06:25;10.07;78.79
66337;SHT30;53139;45.576;5.304;2022-12-29T07:09:25;10.03;78.82
66337;SHT30;53139;45.576;5.304;2022-12-29T07:12:26;9.81;80.69
66337;SHT30;53139;45.576;5.304;2022-12-29T07:15:26;10.17;78.32
66337;SHT30;53139;45.576;5.304;2022-12-29T07:18:26;9.82;79.88
66337;SHT30;53139;45.576;5.304;2022-12-29T07:21:27;9.71;81.07
66337;SHT30;53139;45.576;5.304;2022-12-29T07:24:27;9.79;80.41
66337;SHT30;53139;45.576;5.304;2022-12-29T07:27:27;9.86;80.02
66337;SHT30;53139;45.576;5.304;2022-12-29T08:07:49;10.71;79.38
66337;SHT30;53139;45.576;5.304;2022-12-29T08:10:52;10.79;80.06
66337;SHT30;53139;45.576;5.304;2022-12-29T08:13:53;11.10;78.15
66337;SHT30;53139;45.576;5.304;2022-12-29T08:16:53;11.30;75.53
66337;SHT30;53139;45.576;5.304;2022-12-29T08:19:55;11.17;78.64
66337;SHT30;53139;45.576;5.304;2022-12-29T08:22:55;11.30;77.87
66337;SHT30;53139;45.576;5.304;2022-12-29T08:25:59;11.41;76.40
66337;SHT30;53139;45.576;5.304;2022-12-29T08:29:00;11.58;75.45
66337;SHT30;53139;45.576;5.304;2022-12-29T08:32:00;11.64;77.72
66337;SHT30;53139;45.576;5.304;2022-12-29T08:35:01;11.61;77.91
66337;SHT30;53139;45.576;5.304;2022-12-29T08:38:01;11.71;76.84
66337;SHT30;53139;45.576;5.304;2022-12-29T08:41:01;11.74;78.34
66337;SHT30;53139;45.576;5.304;2022-12-29T08:44:02;11.67;76.90
66337;SHT30;53139;45.576;5.304;2022-12-29T08:47:02;11.75;76.32
66337;SHT30;53139;45.576;5.304;2022-12-29T08:50:03;11.79;75.63
66337;SHT30;53139;45.576;5.304;2022-12-29T08:53:04;11.79;75.68
66337;SHT30;53139;45.576;5.304;2022-12-29T08:56:04;11.85;75.57
66337;SHT30;53139;45.576;5.304;2022-12-29T08:59:05;12.41;75.05
66337;SHT30;53139;45.576;5.304;2022-12-29T09:02:05;12.60;72.81
66337;SHT30;53139;45.576;5.304;2022-12-29T09:05:06;13.00;72.53
66337;SHT30;53139;45.576;5.304;2022-12-29T09:08:06;12.91;71.24
66337;SHT30;53139;45.576;5.304;2022-12-29T09:11:16;13.06;71.93
66337;SHT30;53139;45.576;5.304;2022-12-29T09:14:17;13.53;70.65
66337;SHT30;53139;45.576;5.304;2022-12-29T09:17:17;13.51;70.23
66337;SHT30;53139;45.576;5.304;2022-12-29T09:20:36;13.57;69.99
66337;SHT30;53139;45.576;5.304;2022-12-29T09:23:37;13.72;70.16
66337;SHT30;53139;45.576;5.304;2022-12-29T09:26:38;14.01;69.26
66337;SHT30;53139;45.576;5.304;2022-12-29T09:29:39;14.32;67.52
66337;SHT30;53139;45.576;5.304;2022-12-29T09:32:39;14.64;67.00
66337;SHT30;53139;45.576;5.304;2022-12-29T09:35:43;14.64;66.78
66337;SHT30;53139;45.576;5.304;2022-12-29T09:38:44;14.34;67.76
66337;SHT30;53139;45.576;5.304;2022-12-29T09:48:43;14.16;67.84
66337;SHT30;53139;45.576;5.304;2022-12-29T09:51:48;14.57;67.81
66337;SHT30;53139;45.576;5.304;2022-12-29T09:57:59;15.09;66.93
66337;SHT30;53139;45.576;5.304;2022-12-29T10:01:12;14.93;66.96
66337;SHT30;53139;45.576;5.304;2022-12-29T10:04:14;15.82;66.90
66337;SHT30;53139;45.576;5.304;2022-12-29T10:07:42;15.64;63.90
66337;SHT30;53139;45.576;5.304;2022-12-29T10:10:54;15.98;62.66
66337;SHT30;53139;45.576;5.304;2022-12-29T10:14:12;16.77;64.54
66337;SHT30;53139;45.576;5.304;2022-12-29T10:17:24;16.68;62.43
66337;SHT30;53139;45.576;5.304;2022-12-29T10:20:36;15.49;62.67
66337;SHT30;53139;45.576;5.304;2022-12-29T10:23:52;15.80;64.31
66337;SHT30;53139;45.576;5.304;2022-12-29T10:26:55;15.67;61.78
66337;SHT30;53139;45.576;5.304;2022-12-29T10:29:58;15.63;62.95
66337;SHT30;53139;45.576;5.304;2022-12-29T10:33:04;15.54;63.80
66337;SHT30;53139;45.576;5.304;2022-12-29T10:36:16;15.44;63.38
66337;SHT30;53139;45.576;5.304;2022-12-29T10:39:30;15.67;63.61
66337;SHT30;53139;45.576;5.304;2022-12-29T10:42:43;15.46;64.46
66337;SHT30;53139;45.576;5.304;2022-12-29T10:45:45;14.78;65.22
66337;SHT30;53139;45.576;5.304;2022-12-29T10:48:46;16.02;64.20
66337;SHT30;53139;45.576;5.304;2022-12-29T10:51:48;16.54;61.59
66337;SHT30;53139;45.576;5.304;2022-12-29T10:55:07;16.20;63.05
66337;SHT30;53139;45.576;5.304;2022-12-29T10:58:12;16.16;64.29
66337;SHT30;53139;45.576;5.304;2022-12-29T11:01:13;15.81;64.21
66337;SHT30;53139;45.576;5.304;2022-12-29T11:07:35;14.64;66.72
66337;SHT30;53139;45.576;5.304;2022-12-29T11:10:41;14.61;67.51
66337;SHT30;53139;45.576;5.304;2022-12-29T11:13:51;14.81;66.51
66337;SHT30;53139;45.576;5.304;2022-12-29T11:17:05;14.50;67.08
66337;SHT30;53139;45.576;5.304;2022-12-29T11:20:26;14.88;67.35
66337;SHT30;53139;45.576;5.304;2022-12-29T11:26:32;14.48;67.84
66337;SHT30;53139;45.576;5.304;2022-12-29T11:29:41;14.46;69.17
66337;SHT30;53139;45.576;5.304;2022-12-29T11:32:50;14.44;68.73
66337;SHT30;53139;45.576;5.304;2022-12-29T11:35:57;14.50;69.71
66337;SHT30;53139;45.576;5.304;2022-12-29T11:38:58;14.70;69.16
66337;SHT30;53139;45.576;5.304;2022-12-29T11:41:59;14.61;68.48
66337;SHT30;53139;45.576;5.304;2022-12-29T11:45:32;14.60;68.73
66337;SHT30;53139;45.576;5.304;2022-12-29T11:48:38;14.59;68.42
66337;SHT30;53139;45.576;5.304;2022-12-29T11:51:47;14.59;68.24
66337;SHT30;53139;45.576;5.304;2022-12-29T11:54:49;14.93;68.40
66337;SHT30;53139;45.576;5.304;2022-12-29T11:57:55;14.77;68.47
66337;SHT30;53139;45.576;5.304;2022-12-29T12:01:01;14.48;67.10
66337;SHT30;53139;45.576;5.304;2022-12-29T12:04:07;14.56;67.82
66337;SHT30;53139;45.576;5.304;2022-12-29T12:07:20;14.61;67.77
66337;SHT30;53139;45.576;5.304;2022-12-29T12:10:27;14.46;68.66
66337;SHT30;53139;45.576;5.304;2022-12-29T12:13:34;14.44;67.74
66337;SHT30;53139;45.576;5.304;2022-12-29T12:16:42;14.54;68.71
66337;SHT30;53139;45.576;5.304;2022-12-29T12:19:52;14.33;68.61
66337;SHT30;53139;45.576;5.304;2022-12-29T12:26:19;14.23;68.66
66337;SHT30;53139;45.576;5.304;2022-12-29T12:29:37;14.12;69.32
66337;SHT30;53139;45.576;5.304;2022-12-29T12:38:56;14.04;70.31
66337;SHT30;53139;45.576;5.304;2022-12-29T12:42:11;14.05;71.05
66337;SHT30;53139;45.576;5.304;2022-12-29T12:45:28;13.97;71.31
66337;SHT30;53139;45.576;5.304;2022-12-29T12:59:03;14.57;70.96
66337;SHT30;53139;45.576;5.304;2022-12-29T13:08:53;14.15;72.10
66337;SHT30;53139;45.576;5.304;2022-12-29T13:12:19;14.30;72.66
66337;SHT30;53139;45.576;5.304;2022-12-29T13:15:48;14.30;72.50
66337;SHT30;53139;45.576;5.304;2022-12-29T13:22:05;14.15;72.53
66337;SHT30;53139;45.576;5.304;2022-12-29T13:31:52;14.13;72.80
66337;SHT30;53139;45.576;5.304;2022-12-29T13:38:24;14.16;72.71
66337;SHT30;53139;45.576;5.304;2022-12-29T13:44:40;14.12;73.14
66337;SHT30;53139;45.576;5.304;2022-12-29T13:48:19;13.98;73.01
66337;SHT30;53139;45.576;5.304;2022-12-29T13:51:23;13.85;73.11
66337;SHT30;53139;45.576;5.304;2022-12-29T13:55:17;13.86;73.64
66337;SHT30;53139;45.576;5.304;2022-12-29T14:01:12;13.75;74.26
66337;SHT30;53139;45.576;5.304;2022-12-29T14:04:21;13.70;73.60
66337;SHT30;53139;45.576;5.304;2022-12-29T14:07:21;13.60;74.23
66337;SHT30;53139;45.576;5.304;2022-12-29T14:10:38;13.55;74.38
66337;SHT30;53139;45.576;5.304;2022-12-29T14:13:46;13.47;74.76
66337;SHT30;53139;45.576;5.304;2022-12-29T14:16:48;13.47;75.07
66337;SHT30;53139;45.576;5.304;2022-12-29T14:19:52;13.39;75.52
66337;SHT30;53139;45.576;5.304;2022-12-29T14:22:58;13.39;75.85
66337;SHT30;53139;45.576;5.304;2022-12-29T14:35:39;13.20;76.37
66337;SHT30;53139;45.576;5.304;2022-12-29T14:38:44;13.19;76.29
66337;SHT30;53139;45.576;5.304;2022-12-29T14:41:45;13.17;76.75
66337;SHT30;53139;45.576;5.304;2022-12-29T14:44:48;13.10;77.31
66337;SHT30;53139;45.576;5.304;2022-12-29T14:47:51;13.08;77.51
66337;SHT30;53139;45.576;5.304;2022-12-29T14:50:52;13.03;77.46
66337;SHT30;53139;45.576;5.304;2022-12-29T14:53:53;13.02;77.74
66337;SHT30;53139;45.576;5.304;2022-12-29T14:56:58;12.95;78.04
66337;SHT30;53139;45.576;5.304;2022-12-29T15:00:16;12.96;78.41
66337;SHT30;53139;45.576;5.304;2022-12-29T15:03:23;12.98;78.03
66337;SHT30;53139;45.576;5.304;2022-12-29T15:06:28;12.93;78.99
66337;SHT30;53139;45.576;5.304;2022-12-29T15:09:34;12.87;78.85
66337;SHT30;53139;45.576;5.304;2022-12-29T15:12:40;12.92;78.43
66337;SHT30;53139;45.576;5.304;2022-12-29T15:15:42;12.89;78.98
66337;SHT30;53139;45.576;5.304;2022-12-29T15:18:42;12.88;78.87
66337;SHT30;53139;45.576;5.304;2022-12-29T15:21:44;12.84;79.10
66337;SHT30;53139;45.576;5.304;2022-12-29T15:24:45;12.80;79.35
66337;SHT30;53139;45.576;5.304;2022-12-29T15:27:53;12.84;79.03
66337;SHT30;53139;45.576;5.304;2022-12-29T15:31:01;12.91;78.66
66337;SHT30;53139;45.576;5.304;2022-12-29T15:34:10;12.88;78.72
66337;SHT30;53139;45.576;5.304;2022-12-29T15:37:27;12.87;78.97
66337;SHT30;53139;45.576;5.304;2022-12-29T15:40:30;12.81;79.10
66337;SHT30;53139;45.576;5.304;2022-12-29T15:46:55;12.88;78.71
66337;SHT30;53139;45.576;5.304;2022-12-29T15:50:15;12.95;78.19
66337;SHT30;53139;45.576;5.304;2022-12-29T15:53:26;12.80;79.02
66337;SHT30;53139;45.576;5.304;2022-12-29T15:56:31;12.95;78.20
66337;SHT30;53139;45.576;5.304;2022-12-29T15:59:33;12.87;78.67
66337;SHT30;53139;45.576;5.304;2022-12-29T16:02:34;12.80;78.98
66337;SHT30;53139;45.576;5.304;2022-12-29T16:05:36;12.88;78.52
66337;SHT30;53139;45.576;5.304;2022-12-29T16:08:38;12.85;78.84
66337;SHT30;53139;45.576;5.304;2022-12-29T16:11:44;12.80;78.93
66337;SHT30;53139;45.576;5.304;2022-12-29T16:14:48;12.71;79.15
66337;SHT30;53139;45.576;5.304;2022-12-29T16:17:50;12.69;79.40
66337;SHT30;53139;45.576;5.304;2022-12-29T16:20:53;12.72;79.17
66337;SHT30;53139;45.576;5.304;2022-12-29T16:24:10;12.77;79.31
66337;SHT30;53139;45.576;5.304;2022-12-29T16:27:21;12.58;80.00
66337;SHT30;53139;45.576;5.304;2022-12-29T16:30:27;12.58;80.23
66337;SHT30;53139;45.576;5.304;2022-12-29T16:33:40;12.65;79.72
66337;SHT30;53139;45.576;5.304;2022-12-29T16:37:04;12.58;80.21
66337;SHT30;53139;45.576;5.304;2022-12-29T16:43:44;12.67;79.91
66337;SHT30;53139;45.576;5.304;2022-12-29T16:50:16;12.68;79.84
66337;SHT30;53139;45.576;5.304;2022-12-29T16:53:38;12.62;79.72
66337;SHT30;53139;45.576;5.304;2022-12-29T16:56:43;12.69;79.48
66337;SHT30;53139;45.576;5.304;2022-12-29T16:59:45;12.55;80.07
66337;SHT30;53139;45.576;5.304;2022-12-29T17:02:45;12.65;79.78
66337;SHT30;53139;45.576;5.304;2022-12-29T17:05:46;12.57;79.99
66337;SHT30;53139;45.576;5.304;2022-12-29T17:08:48;12.60;80.14
66337;SHT30;53139;45.576;5.304;2022-12-29T17:11:51;12.51;80.20
66337;SHT30;53139;45.576;5.304;2022-12-29T17:14:57;12.48;80.52
66337;SHT30;53139;45.576;5.304;2022-12-29T17:17:59;12.48;80.63
66337;SHT30;53139;45.576;5.304;2022-12-29T17:20:59;12.45;80.63
66337;SHT30;53139;45.576;5.304;2022-12-29T17:24:00;12.45;80.85
66337;SHT30;53139;45.576;5.304;2022-12-29T17:27:01;12.40;81.58
66337;SHT30;53139;45.576;5.304;2022-12-29T17:30:13;12.38;81.55
66337;SHT30;53139;45.576;5.304;2022-12-29T17:33:19;12.33;82.07
66337;SHT30;53139;45.576;5.304;2022-12-29T17:36:19;12.12;82.76
66337;SHT30;53139;45.576;5.304;2022-12-29T17:39:20;11.79;83.44
66337;SHT30;53139;45.576;5.304;2022-12-29T17:42:20;11.58;84.45
66337;SHT30;53139;45.576;5.304;2022-12-29T17:45:26;11.30;84.85
66337;SHT30;53139;45.576;5.304;2022-12-29T17:48:27;11.12;85.60
66337;SHT30;53139;45.576;5.304;2022-12-29T17:51:27;10.83;86.96
66337;SHT30;53139;45.576;5.304;2022-12-29T17:54:28;10.54;89.09
66337;SHT30;53139;45.576;5.304;2022-12-29T17:57:29;10.29;90.50
66337;SHT30;53139;45.576;5.304;2022-12-29T18:00:29;10.10;91.74
66337;SHT30;53139;45.576;5.304;2022-12-29T18:03:35;9.90;92.72
66337;SHT30;53139;45.576;5.304;2022-12-29T18:06:36;9.69;94.21
66337;SHT30;53139;45.576;5.304;2022-12-29T18:09:36;9.41;95.62
66337;SHT30;53139;45.576;5.304;2022-12-29T18:12:39;9.34;96.14
66337;SHT30;53139;45.576;5.304;2022-12-29T18:15:40;9.33;96.62
66337;SHT30;53139;45.576;5.304;2022-12-29T18:18:40;9.24;96.59
66337;SHT30;53139;45.576;5.304;2022-12-29T18:21:42;9.22;96.98
66337;SHT30;53139;45.576;5.304;2022-12-29T18:24:42;9.22;97.28
66337;SHT30;53139;45.576;5.304;2022-12-29T18:27:43;9.20;97.20
66337;SHT30;53139;45.576;5.304;2022-12-29T18:30:44;9.19;96.95
66337;SHT30;53139;45.576;5.304;2022-12-29T18:33:45;9.14;96.77
66337;SHT30;53139;45.576;5.304;2022-12-29T18:36:45;9.13;97.51
66337;SHT30;53139;45.576;5.304;2022-12-29T18:39:46;9.16;97.53
66337;SHT30;53139;45.576;5.304;2022-12-29T18:42:46;9.22;97.55
66337;SHT30;53139;45.576;5.304;2022-12-29T18:45:47;9.26;97.01
66337;SHT30;53139;45.576;5.304;2022-12-29T18:48:50;9.27;97.94
66337;SHT30;53139;45.576;5.304;2022-12-29T18:51:50;9.27;97.87
66337;SHT30;53139;45.576;5.304;2022-12-29T18:54:50;9.26;97.61
66337;SHT30;53139;45.576;5.304;2022-12-29T18:57:51;9.28;97.60
66337;SHT30;53139;45.576;5.304;2022-12-29T19:00:51;9.12;98.06
66337;SHT30;53139;45.576;5.304;2022-12-29T19:03:52;9.23;98.20
66337;SHT30;53139;45.576;5.304;2022-12-29T19:06:53;9.26;97.79
66337;SHT30;53139;45.576;5.304;2022-12-29T19:09:53;9.20;98.07
66337;SHT30;53139;45.576;5.304;2022-12-29T19:12:53;9.26;98.39
66337;SHT30;53139;45.576;5.304;2022-12-29T19:15:55;9.23;98.20
66337;SHT30;53139;45.576;5.304;2022-12-29T19:18:56;9.26;98.61
66337;SHT30;53139;45.576;5.304;2022-12-29T19:21:58;9.19;98.43
66337;SHT30;53139;45.576;5.304;2022-12-29T19:24:59;9.14;98.71
66337;SHT30;53139;45.576;5.304;2022-12-29T19:27:59;9.13;98.51
66337;SHT30;53139;45.576;5.304;2022-12-29T19:31:01;9.19;98.58
66337;SHT30;53139;45.576;5.304;2022-12-29T19:34:01;9.05;98.74
66337;SHT30;53139;45.576;5.304;2022-12-29T19:37:02;8.97;98.98
66337;SHT30;53139;45.576;5.304;2022-12-29T19:40:03;9.16;98.72
66337;SHT30;53139;45.576;5.304;2022-12-29T19:43:04;9.19;98.78
66337;SHT30;53139;45.576;5.304;2022-12-29T19:46:12;9.13;98.44
66337;SHT30;53139;45.576;5.304;2022-12-29T19:49:14;9.00;98.95
66337;SHT30;53139;45.576;5.304;2022-12-29T19:52:14;9.09;98.87
66337;SHT30;53139;45.576;5.304;2022-12-29T19:55:15;9.00;98.93
66337;SHT30;53139;45.576;5.304;2022-12-29T19:58:15;9.03;98.76
66337;SHT30;53139;45.576;5.304;2022-12-29T20:01:21;9.13;98.75
66337;SHT30;53139;45.576;5.304;2022-12-29T20:04:21;9.10;98.57
66337;SHT30;53139;45.576;5.304;2022-12-29T20:07:23;8.99;98.84
66337;SHT30;53139;45.576;5.304;2022-12-29T20:10:24;9.05;98.89
66337;SHT30;53139;45.576;5.304;2022-12-29T20:20:50;9.06;98.55
66337;SHT30;53139;45.576;5.304;2022-12-29T20:23:52;9.02;98.97
66337;SHT30;53139;45.576;5.304;2022-12-29T20:26:53;9.07;99.05
66337;SHT30;53139;45.576;5.304;2022-12-29T20:29:53;9.10;99.04
66337;SHT30;53139;45.576;5.304;2022-12-29T20:32:54;8.97;99.50
66337;SHT30;53139;45.576;5.304;2022-12-29T20:36:07;9.03;99.61
66337;SHT30;53139;45.576;5.304;2022-12-29T20:39:11;9.02;99.00
66337;SHT30;53139;45.576;5.304;2022-12-29T20:42:12;9.00;99.43
66337;SHT30;53139;45.576;5.304;2022-12-29T20:45:13;9.00;99.61
66337;SHT30;53139;45.576;5.304;2022-12-29T20:48:13;9.02;99.48
66337;SHT30;53139;45.576;5.304;2022-12-29T20:51:14;8.97;99.61
66337;SHT30;53139;45.576;5.304;2022-12-29T20:54:15;8.97;99.57
66337;SHT30;53139;45.576;5.304;2022-12-29T20:57:15;9.05;99.57
66337;SHT30;53139;45.576;5.304;2022-12-29T21:00:16;9.09;99.74
66337;SHT30;53139;45.576;5.304;2022-12-29T21:03:16;8.96;99.62
66337;SHT30;53139;45.576;5.304;2022-12-29T21:06:17;9.03;99.42
66337;SHT30;53139;45.576;5.304;2022-12-29T21:09:19;8.97;98.89
66337;SHT30;53139;45.576;5.304;2022-12-29T21:12:19;8.95;98.53
66337;SHT30;53139;45.576;5.304;2022-12-29T21:15:19;8.92;99.48
66337;SHT30;53139;45.576;5.304;2022-12-29T21:18:20;8.97;99.20
66337;SHT30;53139;45.576;5.304;2022-12-29T21:21:22;9.00;99.45
66337;SHT30;53139;45.576;5.304;2022-12-29T21:24:22;8.97;99.57
66337;SHT30;53139;45.576;5.304;2022-12-29T21:27:23;8.86;99.59
66337;SHT30;53139;45.576;5.304;2022-12-29T21:30:23;8.92;99.63
66337;SHT30;53139;45.576;5.304;2022-12-29T21:33:24;8.89;99.99
66337;SHT30;53139;45.576;5.304;2022-12-29T21:36:24;8.93;99.99
66337;SHT30;53139;45.576;5.304;2022-12-29T21:39:24;8.99;99.99
66337;SHT30;53139;45.576;5.304;2022-12-29T21:42:25;8.90;99.99
66337;SHT30;53139;45.576;5.304;2022-12-29T21:45:28;8.85;99.99
66337;SHT30;53139;45.576;5.304;2022-12-29T21:48:31;8.86;99.99
66337;SHT30;53139;45.576;5.304;2022-12-29T21:51:35;8.89;99.99
66337;SHT30;53139;45.576;5.304;2022-12-29T21:54:50;8.86;99.99
66337;SHT30;53139;45.576;5.304;2022-12-29T21:57:59;8.88;99.99
66337;SHT30;53139;45.576;5.304;2022-12-29T22:01:18;8.83;99.99
66337;SHT30;53139;45.576;5.304;2022-12-29T22:04:45;8.83;99.99
66337;SHT30;53139;45.576;5.304;2022-12-29T22:08:04;8.86;99.99
66337;SHT30;53139;45.576;5.304;2022-12-29T22:11:23;8.79;99.99
66337;SHT30;53139;45.576;5.304;2022-12-29T22:14:42;8.80;99.99